LESB Airport Information

Runway Information
Runway 06 Length 3281 ft width 72 ft
Elevation 0 ft Threshold 0 ft Heading 49
Runway 24 Length 3281 ft Width 72 ft
Elevation 0 ft Threshold 0 ft Heading 229
Airport Frequencies
Type APP Name PALMA APP Frequency 119.4 MHZ
Type OPS Name PALMA OPS Frequency 130.25 MHZ
Type TWR Name PALMA TWR Frequency 118.3 MHZ
Airport Navaids
Airport Weather Information & NOTAM
ADDS - METARS form results

(0308 UTC 14 November 2018)
Data provider http://aviationweather.gov/metar/data/
 
METAR text: LESB 140300Z AUTO 34004KT CAVOK 13/10 Q1024
Conditions at: LESB observed 0300 UTC 14 November 2018
Temperature: 13.0°C (55°F)
Dewpoint: 10.0°C (50°F) [RH = 82%]
Pressure (altimeter): 30.24 inches Hg (1024.0 mb)
Winds: from the NNW (340 degrees) at 5 MPH (4 knots; 2.1 m/s)
Visibility: 6 or more miles (10+ km)
Ceiling: ceiling and visibility are OK
Clouds: unknown
Weather: no significant weather observed at this time

METAR text: LESB 140230Z AUTO 33005KT CAVOK 13/10 Q1025
Conditions at: LESB observed 0230 UTC 14 November 2018
Temperature: 13.0°C (55°F)
Dewpoint: 10.0°C (50°F) [RH = 82%]
Pressure (altimeter): 30.27 inches Hg (1025.0 mb)
Winds: from the NNW (330 degrees) at 6 MPH (5 knots; 2.6 m/s)
Visibility: 6 or more miles (10+ km)
Ceiling: ceiling and visibility are OK
Clouds: unknown
Weather: no significant weather observed at this time